createdAt,value
2023-02-11T00:01:51.638Z,25.20
2023-02-11T00:04:18.361Z,24.55
2023-02-11T00:06:45.032Z,24.13
2023-02-11T00:09:11.665Z,24.27
2023-02-11T00:11:38.389Z,25.98
2023-02-11T00:14:07.869Z,25.65
2023-02-11T00:16:34.913Z,24.13
2023-02-11T00:19:02.283Z,24.40
2023-02-11T00:21:29.234Z,24.63
2023-02-11T00:23:57.261Z,25.67
2023-02-11T00:26:26.450Z,25.27
2023-02-11T00:28:53.466Z,25.80
2023-02-11T00:31:21.404Z,24.75
2023-02-11T00:33:48.162Z,24.48
2023-02-11T00:36:17.834Z,25.45
2023-02-11T00:38:45.111Z,23.75
2023-02-11T00:41:13.277Z,25.63
2023-02-11T00:43:40.668Z,25.40
2023-02-11T00:46:07.854Z,24.65
2023-02-11T00:48:34.562Z,24.38
2023-02-11T00:51:02.175Z,24.05
2023-02-11T00:53:28.797Z,25.60
2023-02-11T00:55:55.470Z,24.25
2023-02-11T00:58:22.568Z,24.80
2023-02-11T01:00:49.414Z,24.35
2023-02-11T01:03:16.068Z,25.30
2023-02-11T01:05:42.740Z,25.60
2023-02-11T01:08:09.463Z,26.52
2023-02-11T01:10:36.154Z,24.58
2023-02-11T01:13:02.882Z,25.45
2023-02-11T01:15:29.717Z,24.63
2023-02-11T01:17:56.543Z,24.40
2023-02-11T01:20:25.292Z,26.13
2023-02-11T01:22:51.952Z,25.42
2023-02-11T01:25:18.783Z,25.67
2023-02-11T01:27:45.444Z,25.13
2023-02-11T01:30:13.791Z,24.80
2023-02-11T01:32:40.636Z,25.45
2023-02-11T01:35:07.916Z,25.90
2023-02-11T01:37:35.156Z,26.35
2023-02-11T01:40:03.195Z,26.77
2023-02-11T01:42:29.917Z,25.08
2023-02-11T01:44:57.781Z,25.88
2023-02-11T01:47:24.405Z,25.35
2023-02-11T01:50:00.939Z,25.63
2023-02-11T01:52:35.902Z,24.90
2023-02-11T01:55:23.546Z,25.25
2023-02-11T01:57:53.177Z,25.20
2023-02-11T02:00:20.992Z,25.80
2023-02-11T02:02:56.799Z,26.27
2023-02-11T02:05:33.814Z,27.02
2023-02-11T02:08:05.485Z,24.27
2023-02-11T02:10:32.187Z,24.98
2023-02-11T02:12:58.795Z,26.23
2023-02-11T02:15:30.898Z,25.20
2023-02-11T02:17:59.120Z,25.33
2023-02-11T02:20:44.679Z,24.50
2023-02-11T02:23:29.282Z,25.13
2023-02-11T02:26:27.076Z,25.33
2023-02-11T02:29:11.942Z,24.35
2023-02-11T02:32:10.391Z,25.58
2023-02-11T02:34:41.023Z,24.98
2023-02-11T02:37:16.499Z,24.17
2023-02-11T02:39:43.145Z,24.65
2023-02-11T02:42:09.794Z,24.15
2023-02-11T02:44:36.432Z,23.85
2023-02-11T02:47:03.189Z,24.58
2023-02-11T02:49:29.856Z,24.23
2023-02-11T02:52:12.875Z,22.90
2023-02-11T02:55:04.725Z,24.02
2023-02-11T02:57:50.205Z,25.27
2023-02-11T03:00:56.222Z,23.38
2023-02-11T03:03:59.223Z,23.50
2023-02-11T03:06:30.859Z,24.17
2023-02-11T03:09:01.390Z,24.25
2023-02-11T03:11:28.092Z,23.95
2023-02-11T03:13:54.925Z,25.80
2023-02-11T03:16:25.395Z,24.30
2023-02-11T03:18:56.821Z,24.42
2023-02-11T03:21:23.513Z,24.77
2023-02-11T03:23:53.331Z,25.63
2023-02-11T03:26:30.738Z,24.27
2023-02-11T03:29:06.632Z,23.45
2023-02-11T03:31:54.963Z,25.10
2023-02-11T03:34:36.659Z,24.90
2023-02-11T03:37:08.570Z,24.08
2023-02-11T03:39:41.430Z,24.27
2023-02-11T03:42:08.895Z,24.35
2023-02-11T03:44:39.191Z,23.75
2023-02-11T03:47:06.378Z,23.23
2023-02-11T03:49:33.068Z,23.92
2023-02-11T03:51:59.772Z,24.10
2023-02-11T03:54:28.980Z,23.17
2023-02-11T03:56:57.355Z,24.20
2023-02-11T03:59:24.089Z,25.23
2023-02-11T04:01:50.897Z,24.23
2023-02-11T04:04:17.916Z,22.83
2023-02-11T04:06:44.772Z,23.33
2023-02-11T04:09:11.899Z,23.35
2023-02-11T04:11:38.670Z,25.65
2023-02-11T04:14:05.332Z,23.90
2023-02-11T04:16:32.181Z,24.60
2023-02-11T04:18:58.940Z,24.27
2023-02-11T04:21:25.761Z,23.98
2023-02-11T04:23:52.460Z,22.70
2023-02-11T04:26:19.254Z,24.08
2023-02-11T04:28:45.970Z,23.10
2023-02-11T04:31:13.005Z,23.90
2023-02-11T04:33:39.795Z,22.55
2023-02-11T04:36:06.933Z,23.48
2023-02-11T04:38:33.678Z,24.13
2023-02-11T04:41:00.710Z,22.85
2023-02-11T04:43:27.394Z,22.55
2023-02-11T04:45:57.794Z,21.75
2023-02-11T04:48:25.061Z,23.90
2023-02-11T04:50:51.787Z,22.33
2023-02-11T04:53:18.490Z,23.77
2023-02-11T04:55:45.210Z,24.17
2023-02-11T04:58:11.947Z,23.25
2023-02-11T05:00:38.668Z,22.73
2023-02-11T05:03:05.356Z,23.27
2023-02-11T05:05:32.172Z,23.30
2023-02-11T05:07:58.891Z,21.50
2023-02-11T05:10:25.622Z,24.33
2023-02-11T05:12:54.637Z,23.55
2023-02-11T05:15:22.373Z,23.48
2023-02-11T05:17:49.079Z,23.73
2023-02-11T05:20:15.873Z,23.30
2023-02-11T05:22:42.574Z,23.23
2023-02-11T05:25:09.312Z,22.90
2023-02-11T05:27:36.037Z,22.15
2023-02-11T05:30:02.850Z,21.80
2023-02-11T05:32:29.527Z,24.00
2023-02-11T05:34:56.219Z,20.88
2023-02-11T05:37:22.992Z,22.45
2023-02-11T05:39:49.774Z,22.50
2023-02-11T05:42:16.521Z,23.00
2023-02-11T05:44:43.300Z,21.70
2023-02-11T05:47:10.027Z,24.23
2023-02-11T05:49:36.777Z,21.67
2023-02-11T05:52:03.802Z,24.00
2023-02-11T05:54:30.549Z,21.98
2023-02-11T05:56:57.275Z,24.05
2023-02-11T05:59:23.994Z,22.13
2023-02-11T06:01:50.755Z,23.23
2023-02-11T06:04:17.439Z,22.70
2023-02-11T06:06:44.129Z,23.10
2023-02-11T06:09:11.932Z,21.77
2023-02-11T06:11:38.840Z,21.17
2023-02-11T06:14:05.578Z,22.38
2023-02-11T06:16:32.346Z,22.35
2023-02-11T06:18:59.119Z,22.45
2023-02-11T06:21:36.344Z,23.63
2023-02-11T06:24:09.387Z,23.58
2023-02-11T06:26:36.117Z,22.50
2023-02-11T06:29:02.833Z,22.08
2023-02-11T06:31:29.684Z,23.17
2023-02-11T06:33:56.503Z,22.67
2023-02-11T06:36:23.437Z,23.08
2023-02-11T06:38:50.508Z,22.48
2023-02-11T06:41:20.173Z,22.00
2023-02-11T06:43:47.072Z,22.65
2023-02-11T06:46:13.861Z,21.20
2023-02-11T06:48:43.075Z,20.80
2023-02-11T06:51:12.069Z,23.42
2023-02-11T06:53:40.690Z,23.40
2023-02-11T06:56:10.181Z,21.58
2023-02-11T06:58:37.229Z,22.52
2023-02-11T07:01:11.251Z,21.98
2023-02-11T07:03:40.128Z,23.45
2023-02-11T07:06:08.217Z,22.67
2023-02-11T07:08:36.098Z,22.85
2023-02-11T07:11:19.304Z,23.85
2023-02-11T07:13:50.842Z,23.50
2023-02-11T07:16:19.001Z,26.55
2023-02-11T07:18:46.048Z,23.58
2023-02-11T07:21:15.030Z,22.85
2023-02-11T07:23:41.751Z,22.25
2023-02-11T07:26:10.490Z,23.50
2023-02-11T07:28:38.207Z,22.20
2023-02-11T07:31:16.327Z,22.65
2023-02-11T07:33:43.245Z,23.33
2023-02-11T07:36:11.016Z,22.20
2023-02-11T07:38:38.167Z,21.52
2023-02-11T07:41:10.176Z,22.40
2023-02-11T07:43:37.505Z,21.45
2023-02-11T07:46:19.173Z,21.92
2023-02-11T07:48:46.029Z,22.05
2023-02-11T07:51:13.813Z,22.17
2023-02-11T07:53:40.601Z,26.13
2023-02-11T07:56:07.967Z,25.48
2023-02-11T07:58:34.693Z,20.67
2023-02-11T08:01:06.183Z,20.35
2023-02-11T08:03:33.646Z,20.42
2023-02-11T08:06:04.784Z,18.73
2023-02-11T08:08:31.469Z,18.92
2023-02-11T08:10:58.515Z,18.55
2023-02-11T08:13:27.112Z,18.00
2023-02-11T08:15:53.845Z,18.60
2023-02-11T08:18:20.513Z,18.55
2023-02-11T08:20:47.235Z,18.17
2023-02-11T08:23:13.943Z,17.95
2023-02-11T08:25:40.634Z,18.27
2023-02-11T08:28:09.303Z,17.58
2023-02-11T08:30:36.226Z,17.38
2023-02-11T08:33:03.044Z,17.10
2023-02-11T08:35:29.774Z,17.70
2023-02-11T08:37:56.451Z,16.15
2023-02-11T08:40:23.312Z,17.58
2023-02-11T08:42:50.015Z,17.70
2023-02-11T08:45:16.874Z,18.05
2023-02-11T08:47:43.581Z,19.17
2023-02-11T08:50:10.393Z,19.30
2023-02-11T08:52:37.104Z,20.45
2023-02-11T08:55:04.113Z,22.77
2023-02-11T08:57:30.828Z,20.67
2023-02-11T08:59:57.476Z,19.80
2023-02-11T09:02:24.214Z,18.67
2023-02-11T09:04:50.921Z,19.92
2023-02-11T09:07:17.885Z,18.65
2023-02-11T09:09:44.532Z,19.33
2023-02-11T09:12:11.252Z,19.33
2023-02-11T09:14:38.722Z,17.77
2023-02-11T09:17:05.460Z,17.50
2023-02-11T09:19:32.170Z,17.63
2023-02-11T09:21:59.561Z,17.63
2023-02-11T09:24:26.272Z,16.92
2023-02-11T09:26:53.060Z,16.77
2023-02-11T09:29:19.794Z,17.02
2023-02-11T09:31:46.670Z,17.70
2023-02-11T09:34:13.593Z,16.63
2023-02-11T09:36:41.164Z,14.73
2023-02-11T09:39:11.975Z,15.13
2023-02-11T09:41:43.255Z,13.88
2023-02-11T09:44:23.685Z,14.73
2023-02-11T09:47:04.775Z,14.88
2023-02-11T09:49:41.254Z,14.98
2023-02-11T09:52:26.782Z,15.60
2023-02-11T09:55:01.234Z,13.98
2023-02-11T09:57:35.732Z,15.10
2023-02-11T10:00:12.223Z,13.82
2023-02-11T10:03:06.355Z,14.48
2023-02-11T10:06:07.022Z,14.75
2023-02-11T10:08:42.786Z,14.57
2023-02-11T10:11:30.607Z,14.73
2023-02-11T10:14:11.402Z,14.38
2023-02-11T10:16:49.209Z,14.57
2023-02-11T10:19:32.638Z,14.68
2023-02-11T10:24:29.269Z,15.82
2023-02-11T10:26:56.020Z,14.68
2023-02-11T10:29:42.283Z,13.23
2023-02-11T10:32:22.408Z,11.27
2023-02-11T10:34:49.082Z,12.13
2023-02-11T10:37:15.845Z,10.82
2023-02-11T10:39:42.656Z,11.48
2023-02-11T10:42:11.244Z,10.10
2023-02-11T10:44:39.725Z,9.27
2023-02-11T10:47:13.202Z,10.25
2023-02-11T10:49:44.447Z,10.27
2023-02-11T10:52:25.257Z,9.63
2023-02-11T10:55:05.701Z,10.68
2023-02-11T10:57:38.230Z,10.90
2023-02-11T11:00:24.404Z,10.73
2023-02-11T11:03:00.641Z,10.65
2023-02-11T11:05:33.465Z,9.98
2023-02-11T11:08:02.687Z,10.10
2023-02-11T11:10:44.755Z,10.45
2023-02-11T11:13:39.989Z,9.48
2023-02-11T11:16:09.659Z,10.60
2023-02-11T11:18:36.388Z,9.80
2023-02-11T11:21:11.468Z,10.20
2023-02-11T11:23:38.278Z,10.07
2023-02-11T11:26:05.149Z,9.27
2023-02-11T11:28:38.946Z,8.75
2023-02-11T11:31:06.394Z,7.18
2023-02-11T11:33:34.078Z,7.07
2023-02-11T11:36:07.002Z,8.05
2023-02-11T11:38:34.725Z,6.95
2023-02-11T11:41:21.836Z,7.28
2023-02-11T11:43:56.367Z,6.07
2023-02-11T11:46:25.256Z,5.90
2023-02-11T11:48:52.042Z,6.82
2023-02-11T11:51:18.889Z,6.07
2023-02-11T11:53:50.785Z,5.78
2023-02-11T11:56:23.487Z,5.97
2023-02-11T11:58:50.264Z,6.75
2023-02-11T12:01:31.906Z,7.18
2023-02-11T12:04:19.799Z,7.40
2023-02-11T12:06:51.172Z,6.57
2023-02-11T12:09:21.016Z,6.53
2023-02-11T12:12:15.203Z,7.18
2023-02-11T12:15:16.481Z,7.25
2023-02-11T12:17:55.328Z,7.20
2023-02-11T12:20:24.063Z,5.95
2023-02-11T12:22:53.800Z,6.88
2023-02-11T12:25:23.396Z,7.07
2023-02-11T12:28:08.034Z,6.38
2023-02-11T12:30:42.742Z,6.95
2023-02-11T12:33:24.573Z,7.18
2023-02-11T12:36:20.777Z,7.25
2023-02-11T12:39:12.336Z,7.55
2023-02-11T12:42:19.515Z,7.15
2023-02-11T12:45:01.320Z,7.40
2023-02-11T12:47:49.769Z,7.35
2023-02-11T12:50:37.493Z,6.45
2023-02-11T12:53:15.088Z,8.10
2023-02-11T12:55:44.556Z,8.05
2023-02-11T12:58:15.513Z,9.13
2023-02-11T13:01:01.988Z,9.15
2023-02-11T13:03:39.719Z,9.55
2023-02-11T13:06:10.176Z,10.13
2023-02-11T13:08:47.108Z,10.13
2023-02-11T13:11:26.447Z,10.40
2023-02-11T13:13:53.128Z,10.25
2023-02-11T13:16:40.734Z,10.45
2023-02-11T13:19:13.437Z,11.15
2023-02-11T13:22:06.385Z,10.95
2023-02-11T13:24:52.733Z,10.70
2023-02-11T13:27:50.798Z,10.55
2023-02-11T13:30:26.985Z,10.77
2023-02-11T13:32:57.136Z,11.38
2023-02-11T13:35:31.424Z,11.35
2023-02-11T13:37:59.096Z,11.85
2023-02-11T13:40:34.827Z,10.98
2023-02-11T13:43:06.945Z,10.93
2023-02-11T13:45:45.803Z,11.47
2023-02-11T13:48:26.716Z,10.43
2023-02-11T13:51:00.245Z,9.48
2023-02-11T13:53:27.649Z,10.82
2023-02-11T13:56:10.119Z,10.77
2023-02-11T13:58:40.148Z,11.25
2023-02-11T14:01:07.665Z,11.52
2023-02-11T14:03:54.889Z,11.57
2023-02-11T14:06:49.206Z,10.27
2023-02-11T14:09:17.400Z,12.20
2023-02-11T14:11:45.759Z,11.52
2023-02-11T14:14:24.676Z,12.27
2023-02-11T14:17:00.987Z,11.82
2023-02-11T14:19:35.552Z,11.48
2023-02-11T14:22:06.930Z,12.90
2023-02-11T14:24:33.582Z,12.77
2023-02-11T14:27:21.501Z,12.13
2023-02-11T14:30:12.564Z,11.93
2023-02-11T14:32:57.619Z,11.90
2023-02-11T14:35:55.097Z,12.93
2023-02-11T14:38:39.925Z,12.20
2023-02-11T14:41:09.739Z,13.45
2023-02-11T14:43:39.822Z,12.02
2023-02-11T14:46:07.681Z,12.25
2023-02-11T14:48:35.526Z,12.13
2023-02-11T14:51:06.807Z,11.50
2023-02-11T14:53:33.664Z,12.15
2023-02-11T14:56:00.393Z,10.77
2023-02-11T14:58:29.631Z,11.80
2023-02-11T15:01:09.081Z,12.15
2023-02-11T15:03:38.037Z,11.77
2023-02-11T15:06:17.227Z,11.48
2023-02-11T15:08:54.959Z,11.10
2023-02-11T15:11:25.729Z,11.13
2023-02-11T15:13:55.317Z,11.50
2023-02-11T15:16:24.162Z,10.93
2023-02-11T15:19:00.860Z,11.15
2023-02-11T15:21:32.539Z,11.82
2023-02-11T15:24:02.446Z,11.90
2023-02-11T15:26:30.360Z,12.07
2023-02-11T15:28:57.104Z,11.63
2023-02-11T15:31:26.047Z,11.38
2023-02-11T15:33:53.266Z,11.85
2023-02-11T15:36:23.980Z,12.10
2023-02-11T15:39:16.410Z,11.25
2023-02-11T15:41:44.499Z,11.45
2023-02-11T15:44:30.757Z,11.02
2023-02-11T15:46:57.825Z,12.00
2023-02-11T15:49:25.543Z,12.35
2023-02-11T15:51:53.000Z,11.75
2023-02-11T15:54:21.596Z,11.45
2023-02-11T15:56:50.928Z,13.85
2023-02-11T15:59:38.445Z,12.50
2023-02-11T16:02:19.663Z,13.45
2023-02-11T16:04:51.608Z,13.02
2023-02-11T16:07:45.287Z,13.85
2023-02-11T16:10:24.255Z,14.13
2023-02-11T16:12:52.857Z,14.40
2023-02-11T16:15:39.791Z,14.57
2023-02-11T16:18:37.330Z,16.05
2023-02-11T16:21:07.366Z,15.35
2023-02-11T16:23:38.395Z,14.48
2023-02-11T16:26:25.899Z,15.15
2023-02-11T16:28:52.591Z,15.30
2023-02-11T16:31:19.514Z,16.67
2023-02-11T16:33:46.297Z,15.93
2023-02-11T16:36:14.281Z,16.35
2023-02-11T16:38:41.050Z,17.40
2023-02-11T16:41:08.992Z,17.20
2023-02-11T16:43:35.890Z,16.55
2023-02-11T16:46:02.610Z,16.95
2023-02-11T16:48:29.339Z,17.13
2023-02-11T16:50:56.363Z,16.40
2023-02-11T16:53:24.479Z,16.42
2023-02-11T16:55:52.409Z,17.45
2023-02-11T16:58:19.815Z,16.33
2023-02-11T17:00:47.322Z,17.58
2023-02-11T17:03:21.305Z,16.92
2023-02-11T17:05:55.294Z,18.13
2023-02-11T17:08:22.468Z,19.25
2023-02-11T17:10:49.538Z,18.27
2023-02-11T17:13:16.476Z,18.20
2023-02-11T17:15:43.219Z,18.25
2023-02-11T17:18:12.830Z,18.48
2023-02-11T17:20:39.578Z,19.23
2023-02-11T17:23:06.320Z,18.52
2023-02-11T17:25:33.172Z,18.00
2023-02-11T17:27:59.970Z,18.98
2023-02-11T17:30:26.681Z,19.58
2023-02-11T17:32:53.424Z,18.75
2023-02-11T17:35:20.154Z,18.90
2023-02-11T17:37:47.002Z,18.40
2023-02-11T17:40:14.124Z,18.75
2023-02-11T17:42:41.036Z,17.50
2023-02-11T17:45:08.903Z,17.80
2023-02-11T17:47:36.124Z,17.80
2023-02-11T17:50:03.242Z,16.42
2023-02-11T17:52:30.049Z,17.42
2023-02-11T17:54:58.086Z,17.23
2023-02-11T17:57:24.956Z,17.05
2023-02-11T17:59:51.788Z,17.48
2023-02-11T18:02:18.543Z,16.25
2023-02-11T18:04:45.337Z,17.55
2023-02-11T18:07:12.118Z,18.00
2023-02-11T18:09:39.897Z,18.25
2023-02-11T18:12:07.484Z,18.38
2023-02-11T18:14:34.184Z,19.00
2023-02-11T18:17:01.149Z,19.92
2023-02-11T18:19:30.714Z,18.73
2023-02-11T18:22:00.839Z,19.88
2023-02-11T18:24:27.757Z,20.38
2023-02-11T18:26:54.474Z,20.65
2023-02-11T18:29:21.338Z,18.88
2023-02-11T18:31:48.132Z,20.33
2023-02-11T18:34:16.012Z,18.52
2023-02-11T18:36:42.826Z,18.60
2023-02-11T18:39:09.540Z,19.10
2023-02-11T18:41:40.157Z,19.65
2023-02-11T18:44:07.252Z,18.38
2023-02-11T18:46:34.272Z,24.20
2023-02-11T18:49:01.248Z,22.48
2023-02-11T18:51:28.181Z,22.27
2023-02-11T18:53:54.894Z,21.08
2023-02-11T18:56:23.385Z,21.17
2023-02-11T18:58:51.452Z,22.42
2023-02-11T19:01:24.537Z,23.38
2023-02-11T19:03:51.515Z,22.85
2023-02-11T19:06:29.366Z,22.30
2023-02-11T19:08:59.940Z,22.25
2023-02-11T19:11:46.396Z,21.27
2023-02-11T19:14:14.668Z,20.98
2023-02-11T19:16:42.935Z,22.63
2023-02-11T19:19:09.951Z,22.55
2023-02-11T19:21:36.877Z,21.27
2023-02-11T19:24:07.852Z,22.77
2023-02-11T19:26:35.334Z,23.92
2023-02-11T19:29:02.241Z,22.75
2023-02-11T19:31:32.353Z,22.10
2023-02-11T19:33:59.872Z,22.35
2023-02-11T19:36:26.622Z,24.75
2023-02-11T19:38:53.556Z,23.27
2023-02-11T19:41:22.573Z,24.00
2023-02-11T19:43:53.503Z,23.40
2023-02-11T19:46:21.286Z,21.52
2023-02-11T19:48:48.694Z,21.15
2023-02-11T19:51:16.468Z,20.58
2023-02-11T19:53:43.713Z,21.02
2023-02-11T19:56:11.030Z,20.23
2023-02-11T19:58:38.850Z,28.48
2023-02-11T20:01:24.765Z,34.53
2023-02-11T20:03:52.868Z,33.85
2023-02-11T20:06:23.613Z,32.10
2023-02-11T20:09:01.388Z,31.55
2023-02-11T20:11:29.657Z,31.42
2023-02-11T20:13:56.699Z,30.63
2023-02-11T20:16:36.843Z,30.90
2023-02-11T20:19:16.906Z,30.77
2023-02-11T20:21:46.686Z,28.95
2023-02-11T20:24:13.808Z,28.35
2023-02-11T20:26:42.574Z,26.85
2023-02-11T20:29:09.658Z,24.17
2023-02-11T20:31:36.855Z,22.48
2023-02-11T20:34:03.883Z,24.40
2023-02-11T20:36:32.618Z,24.67
2023-02-11T20:38:59.968Z,25.08
2023-02-11T20:41:29.560Z,26.20
2023-02-11T20:43:58.129Z,23.58
2023-02-11T20:46:27.279Z,22.42
2023-02-11T20:48:55.093Z,23.80
2023-02-11T20:51:26.111Z,23.70
2023-02-11T20:53:53.209Z,23.13
2023-02-11T20:56:25.710Z,24.10
2023-02-11T20:58:53.389Z,24.70
2023-02-11T21:01:22.637Z,23.63
2023-02-11T21:03:51.495Z,24.15
2023-02-11T21:06:19.082Z,24.98
2023-02-11T21:08:45.872Z,26.60
2023-02-11T21:11:12.673Z,26.83
2023-02-11T21:13:40.653Z,26.75
2023-02-11T21:16:09.344Z,27.95
2023-02-11T21:18:36.789Z,31.20
2023-02-11T21:21:06.661Z,30.95
2023-02-11T21:23:33.919Z,38.95
2023-02-11T21:26:00.700Z,31.75
2023-02-11T21:28:27.704Z,29.42
2023-02-11T21:30:55.827Z,28.92
2023-02-11T21:33:23.833Z,29.10
2023-02-11T21:35:51.006Z,27.13
2023-02-11T21:38:17.819Z,26.92
2023-02-11T21:40:44.493Z,26.13
2023-02-11T21:43:11.253Z,26.27
2023-02-11T21:45:42.978Z,25.05
2023-02-11T21:48:10.082Z,25.65
2023-02-11T21:50:40.788Z,23.77
2023-02-11T21:53:07.971Z,25.20
2023-02-11T21:55:35.355Z,25.35
2023-02-11T21:58:02.112Z,25.58
2023-02-11T22:00:29.328Z,25.88
2023-02-11T22:02:56.100Z,24.55
2023-02-11T22:05:22.919Z,25.05
2023-02-11T22:07:49.678Z,23.70
2023-02-11T22:10:16.714Z,25.15
2023-02-11T22:12:43.489Z,25.95
2023-02-11T22:15:10.351Z,26.17
2023-02-11T22:17:37.114Z,25.25
2023-02-11T22:20:04.417Z,26.77
2023-02-11T22:22:31.176Z,27.25
2023-02-11T22:25:00.185Z,26.63
2023-02-11T22:27:26.899Z,26.08
2023-02-11T22:29:53.674Z,23.80
2023-02-11T22:32:20.401Z,26.33
2023-02-11T22:34:47.068Z,25.67
2023-02-11T22:37:14.389Z,24.88
2023-02-11T22:39:42.757Z,24.80
2023-02-11T22:42:09.582Z,26.35
2023-02-11T22:44:37.423Z,25.13
2023-02-11T22:47:04.200Z,25.25
2023-02-11T22:49:32.678Z,24.45
2023-02-11T22:51:59.980Z,22.85
2023-02-11T22:54:27.621Z,23.50
2023-02-11T22:56:54.358Z,24.00
2023-02-11T22:59:21.441Z,22.85
2023-02-11T23:01:48.390Z,22.42
2023-02-11T23:04:17.048Z,22.30
2023-02-11T23:06:43.985Z,23.08
2023-02-11T23:09:12.613Z,22.42
2023-02-11T23:11:39.762Z,23.33
2023-02-11T23:14:08.656Z,22.00
2023-02-11T23:16:35.647Z,23.15
2023-02-11T23:19:07.465Z,23.58
2023-02-11T23:21:36.250Z,21.00
2023-02-11T23:24:06.357Z,21.15
2023-02-11T23:26:33.424Z,22.42
2023-02-11T23:29:00.429Z,22.58
2023-02-11T23:31:29.968Z,22.50
2023-02-11T23:33:56.766Z,22.58
2023-02-11T23:36:23.600Z,21.33
2023-02-11T23:38:50.329Z,22.92
2023-02-11T23:41:17.549Z,22.77
2023-02-11T23:43:48.661Z,22.73
2023-02-11T23:46:15.418Z,22.73
2023-02-11T23:48:42.156Z,22.13
2023-02-11T23:51:11.623Z,23.00
2023-02-11T23:53:38.798Z,21.42
2023-02-11T23:56:14.926Z,22.92
2023-02-11T23:58:41.605Z,24.17
